KBPG/BPG METAR and TAF weather

Enter ICAO airport designator
Station Type Date Time Source
KBPG METAR 2020/04/06 18:35 UTC NOAA

KBPG 061835Z AUTO 16012KT 10SM OVC012 18/16 A2999 RMK AO2 T01810158


Station Type Date Time Source
KBPG Decoded METAR 2020/04/06 18:35 UTC NOAA

Big Spring, Big Spring McMahon-Wrinkle Airport, TX, United States (KBPG) 32-12N 101-31W
Apr 06, 2020 - 02:35 PM EDT / 2020.04.06 1835 UTC
Wind: from the SSE (160 degrees) at 14 MPH (12 KT):0
Visibility: 10 mile(s):0
Sky conditions: overcast
Temperature: 64.6 F (18.1 C)
Dew Point: 60.4 F (15.8 C)
Relative Humidity: 86%
Pressure (altimeter): 29.99 in. Hg (1015 hPa)
ob: KBPG 061835Z AUTO 16012KT 10SM OVC012 18/16 A2999 RMK AO2 T01810158
cycle: 18

Station Type Date Time Source
KBPG TAF UTC NOAA

Error!

Example: see airport list